Time;durP1;ratioP1;P1;durP2;ratioP2;P2;SDS_P1;SDS_P2;PMS_P1;PMS_P2;Temp;Humidity;BMP_temperature;BMP_pressure;BME280_temperature;BME280_humidity;BME280_pressure;Samples;Min_cycle;Max_cycle;Signal;HPM_P1;HPM_P2
2022/06/30 00:01:21;;;;;;;6.97;4.70;;;20.30;99.90;;;;;;5034152;28;20130;-77
2022/06/30 00:03:47;;;;;;;7.07;4.28;;;20.30;99.90;;;;;;5034172;28;20034;-76
2022/06/30 00:06:12;;;;;;;7.93;4.65;;;20.20;99.90;;;;;;5034037;28;20079;-76
2022/06/30 00:08:38;;;;;;;6.70;4.10;;;20.20;99.90;;;;;;5034441;28;20095;-77
2022/06/30 00:11:06;;;;;;;6.80;4.63;;;20.20;99.90;;;;;;5017413;28;20136;-78
2022/06/30 00:13:34;;;;;;;9.27;4.47;;;20.20;99.90;;;;;;5050318;28;20401;-78
2022/06/30 00:16:00;;;;;;;7.10;4.03;;;20.20;99.90;;;;;;5044011;28;20030;-77
2022/06/30 00:18:25;;;;;;;7.10;4.38;;;20.10;99.90;;;;;;5037281;28;20045;-77
2022/06/30 00:20:51;;;;;;;7.88;3.97;;;20.10;99.90;;;;;;5053824;28;20033;-76
2022/06/30 00:23:16;;;;;;;6.05;3.85;;;20.00;99.90;;;;;;5053759;28;20049;-77
2022/06/30 00:25:42;;;;;;;6.20;4.28;;;20.00;99.90;;;;;;5029919;28;20033;-77
2022/06/30 00:28:07;;;;;;;6.05;3.95;;;20.00;99.90;;;;;;5047454;28;20077;-76
2022/06/30 00:30:33;;;;;;;7.57;3.92;;;20.00;99.90;;;;;;5066821;28;20041;-77
2022/06/30 00:32:59;;;;;;;5.63;3.85;;;20.00;99.90;;;;;;5050145;28;20037;-77
2022/06/30 00:35:24;;;;;;;7.03;3.85;;;20.00;99.90;;;;;;5052709;28;20047;-78
2022/06/30 00:37:50;;;;;;;6.32;3.92;;;19.90;99.90;;;;;;5052272;28;20072;-76
2022/06/30 00:40:16;;;;;;;5.72;3.65;;;19.80;99.90;;;;;;5052808;28;20082;-77
2022/06/30 00:42:41;;;;;;;6.25;3.30;;;19.90;99.90;;;;;;5052674;28;20104;-79
2022/06/30 00:45:07;;;;;;;6.20;3.78;;;19.80;99.90;;;;;;5035956;28;20493;-77
2022/06/30 00:47:33;;;;;;;6.88;3.88;;;19.80;99.90;;;;;;5053419;28;20076;-76
2022/06/30 00:50:00;;;;;;;6.35;3.95;;;19.70;99.90;;;;;;5053238;28;20079;-77
2022/06/30 00:52:28;;;;;;;5.95;3.72;;;19.70;99.90;;;;;;5051664;28;20497;-75
2022/06/30 00:54:56;;;;;;;6.45;3.78;;;19.70;99.90;;;;;;5035810;28;20041;-75
2022/06/30 00:57:23;;;;;;;6.05;3.80;;;19.70;99.90;;;;;;5032326;28;20072;-75
2022/06/30 00:59:55;;;;;;;6.63;4.05;;;19.60;99.90;;;;;;5051147;28;20095;-76
2022/06/30 01:02:21;;;;;;;5.95;3.83;;;19.60;99.90;;;;;;5034716;28;20523;-76
2022/06/30 01:04:49;;;;;;;6.65;3.35;;;19.50;99.90;;;;;;5035458;28;20045;-76
2022/06/30 01:07:16;;;;;;;6.22;3.53;;;19.50;99.90;;;;;;5019828;28;20037;-76
2022/06/30 01:12:44;;;;;;;5.57;3.63;;;19.50;99.90;;;;;;5052650;28;20053;-77
2022/06/30 01:15:18;;;;;;;5.88;3.83;;;19.30;99.90;;;;;;5051944;28;20048;-76
2022/06/30 01:17:45;;;;;;;6.18;3.70;;;19.30;99.90;;;;;;5052851;28;20029;-75
2022/06/30 01:20:11;;;;;;;6.53;3.80;;;19.30;99.90;;;;;;5051980;28;20068;-76
2022/06/30 01:22:37;;;;;;;6.05;3.70;;;19.20;99.90;;;;;;5043742;28;20041;-76
2022/06/30 01:25:04;;;;;;;6.65;3.70;;;19.20;99.90;;;;;;5028334;28;20088;-76
2022/06/30 01:27:30;;;;;;;5.80;3.88;;;19.20;99.90;;;;;;5032798;28;20073;-76
2022/06/30 01:29:57;;;;;;;6.82;3.92;;;19.20;99.90;;;;;;5032874;28;20500;-76
2022/06/30 01:32:24;;;;;;;6.53;4.13;;;19.20;99.90;;;;;;5032584;28;20045;-76
2022/06/30 01:34:49;;;;;;;6.57;4.00;;;19.10;99.90;;;;;;5049080;28;20038;-76
2022/06/30 01:37:15;;;;;;;5.65;3.67;;;19.20;99.90;;;;;;5032365;28;20096;-76
2022/06/30 01:39:41;;;;;;;7.28;3.80;;;19.10;99.90;;;;;;5032477;28;20477;-76
2022/06/30 01:42:06;;;;;;;7.28;3.63;;;19.10;99.90;;;;;;5050177;28;20382;-76
2022/06/30 01:44:32;;;;;;;7.18;4.00;;;19.10;99.90;;;;;;5035937;28;20044;-75
2022/06/30 01:46:58;;;;;;;6.68;4.22;;;19.10;99.90;;;;;;5017627;28;20130;-76
2022/06/30 01:49:23;;;;;;;7.43;4.05;;;19.10;99.90;;;;;;5049295;28;20036;-76
2022/06/30 01:51:49;;;;;;;6.25;3.60;;;19.10;99.90;;;;;;5066586;28;20041;-77
2022/06/30 01:54:15;;;;;;;6.00;3.75;;;19.10;99.90;;;;;;5034553;28;20047;-76
2022/06/30 01:56:40;;;;;;;7.28;4.00;;;19.10;99.90;;;;;;5023665;28;20048;-76
2022/06/30 01:59:06;;;;;;;6.97;3.90;;;19.10;99.90;;;;;;5032695;28;20043;-76
2022/06/30 02:01:32;;;;;;;8.10;4.57;;;19.10;99.90;;;;;;5025980;28;20034;-77
2022/06/30 02:06:44;;;;;;;6.03;3.90;;;19.00;99.90;;;;;;5046378;28;20072;-76
2022/06/30 02:09:09;;;;;;;6.25;3.80;;;19.00;99.90;;;;;;5050106;28;20041;-77
2022/06/30 02:11:35;;;;;;;7.75;4.13;;;19.00;99.90;;;;;;5049971;28;20052;-76
2022/06/30 02:14:00;;;;;;;7.45;3.90;;;19.00;99.90;;;;;;5033131;28;20044;-77
2022/06/30 02:16:26;;;;;;;6.53;3.90;;;19.00;99.90;;;;;;5046291;28;20048;-76
2022/06/30 02:18:52;;;;;;;5.65;3.90;;;18.90;99.90;;;;;;5033481;28;20124;-76
2022/06/30 02:21:17;;;;;;;6.50;4.15;;;18.90;99.90;;;;;;5045006;28;20041;-77
2022/06/30 02:23:44;;;;;;;7.30;4.00;;;18.90;99.90;;;;;;5051513;28;20041;-77
2022/06/30 02:26:09;;;;;;;5.75;3.60;;;18.90;99.90;;;;;;5050195;28;20029;-77
2022/06/30 02:28:35;;;;;;;6.03;3.42;;;18.90;99.90;;;;;;5015923;28;20071;-78
2022/06/30 02:31:00;;;;;;;6.97;3.97;;;18.90;99.90;;;;;;5039708;28;20037;-77
2022/06/30 02:33:26;;;;;;;6.75;3.60;;;18.90;99.90;;;;;;5051641;28;20081;-76
2022/06/30 02:35:51;;;;;;;7.18;4.18;;;18.80;99.90;;;;;;5042611;28;20048;-77
2022/06/30 02:38:17;;;;;;;6.13;3.47;;;18.80;99.90;;;;;;5051470;28;20046;-76
2022/06/30 02:40:42;;;;;;;7.30;3.80;;;18.70;99.90;;;;;;5039196;28;20039;-76
2022/06/30 02:43:08;;;;;;;5.43;3.40;;;18.70;99.90;;;;;;5049628;28;20076;-77
2022/06/30 02:45:33;;;;;;;5.85;3.42;;;18.70;99.90;;;;;;5043530;28;20045;-77
2022/06/30 02:47:59;;;;;;;5.97;3.60;;;18.70;99.90;;;;;;5022624;28;20052;-77
2022/06/30 02:50:25;;;;;;;6.63;3.83;;;18.70;99.90;;;;;;5039766;28;20041;-77
2022/06/30 02:52:50;;;;;;;6.22;3.78;;;18.70;99.90;;;;;;5033459;28;20041;-77
2022/06/30 02:55:16;;;;;;;7.32;3.58;;;18.70;99.90;;;;;;5034377;28;20067;-77
2022/06/30 02:57:42;;;;;;;6.45;3.58;;;18.60;99.90;;;;;;5033487;28;20045;-78
2022/06/30 03:00:10;;;;;;;7.00;4.10;;;18.60;99.90;;;;;;5032986;28;20745;-77
2022/06/30 03:02:37;;;;;;;8.00;3.92;;;18.60;99.90;;;;;;5049679;28;20037;-76
2022/06/30 03:05:03;;;;;;;6.72;3.58;;;18.60;99.90;;;;;;5050015;28;20044;-77
2022/06/30 03:07:28;;;;;;;6.18;3.67;;;18.50;99.90;;;;;;5037305;28;20485;-77
2022/06/30 03:09:54;;;;;;;6.93;3.67;;;18.60;99.90;;;;;;5050724;28;20037;-76
2022/06/30 03:12:20;;;;;;;6.57;3.60;;;18.60;99.90;;;;;;5050240;28;20154;-76
2022/06/30 03:14:47;;;;;;;6.38;3.28;;;18.50;99.90;;;;;;5049315;28;20110;-76
2022/06/30 03:17:13;;;;;;;6.50;3.65;;;18.50;99.90;;;;;;5026380;28;20135;-76
2022/06/30 03:19:38;;;;;;;9.60;3.90;;;18.50;99.90;;;;;;5061361;28;20068;-76
2022/06/30 03:22:05;;;;;;;6.10;3.70;;;18.40;99.90;;;;;;5054785;28;20047;-76
2022/06/30 03:24:30;;;;;;;7.22;4.10;;;18.50;99.90;;;;;;5052820;28;20044;-76
2022/06/30 03:26:56;;;;;;;6.18;4.00;;;18.50;99.90;;;;;;5054081;28;20045;-76
2022/06/30 03:29:21;;;;;;;7.53;3.90;;;18.40;99.90;;;;;;5049718;28;20033;-76
2022/06/30 03:31:47;;;;;;;6.53;3.78;;;18.40;99.90;;;;;;5034837;28;20044;-76
2022/06/30 03:34:13;;;;;;;7.10;3.80;;;18.40;99.90;;;;;;5035167;28;20401;-76
2022/06/30 03:36:38;;;;;;;6.20;4.00;;;18.40;99.90;;;;;;5026120;28;20043;-76
2022/06/30 03:39:04;;;;;;;6.95;3.70;;;18.30;99.90;;;;;;5034583;28;20124;-76
2022/06/30 03:41:30;;;;;;;6.18;4.22;;;18.30;99.90;;;;;;5018080;28;20099;-76
2022/06/30 03:43:55;;;;;;;6.82;4.10;;;18.30;99.90;;;;;;5035788;28;20037;-76
2022/06/30 03:46:21;;;;;;;5.90;3.90;;;18.30;99.90;;;;;;5037809;28;20044;-76
2022/06/30 03:48:47;;;;;;;6.43;4.25;;;18.20;99.90;;;;;;5053575;28;20378;-76
2022/06/30 03:51:12;;;;;;;7.75;4.10;;;18.10;99.90;;;;;;5053790;28;20041;-76
2022/06/30 03:53:39;;;;;;;7.00;4.05;;;18.10;99.90;;;;;;5053504;28;20037;-75
2022/06/30 03:56:05;;;;;;;8.45;4.03;;;18.10;99.90;;;;;;5050450;28;20034;-75
2022/06/30 03:58:30;;;;;;;8.88;4.45;;;18.20;99.90;;;;;;5043211;28;20029;-77
2022/06/30 04:00:56;;;;;;;7.95;4.28;;;18.00;99.90;;;;;;5052968;28;20536;-76
2022/06/30 04:03:21;;;;;;;8.23;4.35;;;18.00;99.90;;;;;;5054380;28;20045;-76
2022/06/30 04:05:47;;;;;;;6.93;4.72;;;18.00;99.90;;;;;;5059600;28;20048;-77
2022/06/30 04:08:12;;;;;;;6.97;4.75;;;18.00;99.90;;;;;;5034089;28;20120;-76
2022/06/30 04:10:38;;;;;;;8.50;4.65;;;17.90;99.90;;;;;;5064476;28;20045;-76
2022/06/30 04:13:04;;;;;;;7.15;4.68;;;17.90;99.90;;;;;;5027426;28;20104;-76
2022/06/30 04:15:29;;;;;;;8.00;4.63;;;17.90;99.90;;;;;;5045912;28;20507;-77
2022/06/30 04:17:55;;;;;;;7.75;4.47;;;18.00;99.90;;;;;;5042022;28;20036;-76
2022/06/30 04:20:20;;;;;;;8.73;5.03;;;18.00;99.90;;;;;;5047087;28;20401;-76
2022/06/30 04:22:47;;;;;;;8.82;4.70;;;18.00;99.90;;;;;;5036575;28;20626;-76
2022/06/30 04:25:13;;;;;;;7.28;4.57;;;18.00;99.90;;;;;;5029437;28;20041;-76
2022/06/30 04:27:48;;;;;;;6.65;4.53;;;18.10;99.90;;;;;;5018547;28;20060;-76
2022/06/30 04:30:14;;;;;;;7.38;4.75;;;18.20;99.90;;;;;;5034701;28;20481;-77
2022/06/30 04:32:41;;;;;;;8.02;4.80;;;18.30;99.90;;;;;;5035510;28;20037;-76
2022/06/30 04:35:11;;;;;;;8.30;4.90;;;18.40;99.90;;;;;;5067516;28;20041;-76
2022/06/30 04:37:40;;;;;;;7.72;5.22;;;18.40;99.90;;;;;;5038670;28;20025;-76
2022/06/30 04:42:51;;;;;;;7.20;5.10;;;18.40;99.90;;;;;;5037829;28;20040;-76
2022/06/30 04:45:17;;;;;;;9.43;5.22;;;18.40;99.90;;;;;;5052490;28;20041;-76
2022/06/30 04:47:43;;;;;;;8.43;5.55;;;18.50;99.90;;;;;;5040564;28;20077;-76
2022/06/30 04:50:09;;;;;;;8.73;5.75;;;18.60;99.90;;;;;;5050552;28;20120;-76
2022/06/30 04:52:35;;;;;;;8.23;5.35;;;18.70;99.90;;;;;;5051379;28;20549;-76
2022/06/30 04:55:01;;;;;;;7.72;5.32;;;18.80;99.90;;;;;;5035671;28;20037;-76
2022/06/30 04:57:27;;;;;;;7.80;5.53;;;18.90;99.90;;;;;;5051807;28;20041;-76
2022/06/30 04:59:53;;;;;;;7.38;5.38;;;18.80;99.90;;;;;;5050971;28;20404;-75
2022/06/30 05:02:18;;;;;;;7.40;5.43;;;18.70;99.90;;;;;;5048730;28;20049;-75
2022/06/30 05:04:44;;;;;;;8.13;5.32;;;18.70;99.90;;;;;;5040431;28;20030;-75
2022/06/30 05:07:10;;;;;;;7.50;5.20;;;18.70;99.90;;;;;;5039937;28;20094;-76
2022/06/30 05:09:36;;;;;;;9.45;5.43;;;18.70;99.90;;;;;;5051891;28;20045;-75
2022/06/30 05:12:02;;;;;;;8.65;5.13;;;18.70;99.90;;;;;;5040455;28;20060;-76
2022/06/30 05:14:27;;;;;;;7.97;5.72;;;18.60;99.90;;;;;;5052811;28;20072;-76
2022/06/30 05:16:53;;;;;;;7.43;5.13;;;18.60;99.90;;;;;;5050995;28;20493;-76
2022/06/30 05:19:18;;;;;;;7.63;5.45;;;18.60;99.90;;;;;;5036046;28;20407;-76
2022/06/30 05:21:44;;;;;;;8.38;5.60;;;18.50;99.90;;;;;;5040635;28;20076;-76
2022/06/30 05:26:53;;;;;;;7.47;5.10;;;18.60;99.90;;;;;;5040381;28;20045;-76
2022/06/30 05:29:19;;;;;;;7.88;5.22;;;18.70;99.90;;;;;;5052425;28;20428;-76
2022/06/30 05:31:44;;;;;;;7.47;5.43;;;18.70;99.90;;;;;;5050364;28;20420;-76
2022/06/30 05:34:10;;;;;;;8.55;5.00;;;18.80;99.90;;;;;;5020890;28;20036;-76
2022/06/30 05:36:36;;;;;;;8.32;5.13;;;18.90;99.90;;;;;;5049534;28;20037;-76
2022/06/30 05:39:01;;;;;;;7.50;5.38;;;18.90;99.90;;;;;;5017954;28;20034;-76
2022/06/30 05:41:27;;;;;;;9.35;5.80;;;19.00;99.90;;;;;;5033849;28;20094;-76
2022/06/30 05:43:52;;;;;;;8.75;4.97;;;19.00;99.90;;;;;;5035937;28;20091;-76
2022/06/30 05:46:18;;;;;;;10.25;5.43;;;19.10;99.90;;;;;;5041350;28;20037;-76
2022/06/30 05:48:44;;;;;;;8.43;5.40;;;19.50;99.90;;;;;;5047435;28;20397;-76
2022/06/30 05:51:10;;;;;;;8.13;5.55;;;19.50;99.90;;;;;;5025721;28;20029;-76
2022/06/30 05:53:35;;;;;;;9.60;5.40;;;19.50;99.90;;;;;;5047494;28;20041;-76
2022/06/30 05:56:01;;;;;;;9.07;5.10;;;19.60;99.90;;;;;;5045247;28;20043;-76
2022/06/30 05:58:27;;;;;;;8.90;6.32;;;19.70;99.90;;;;;;5032218;28;20071;-76
2022/06/30 06:00:53;;;;;;;8.05;5.93;;;19.70;99.90;;;;;;5040907;28;20393;-74
2022/06/30 06:03:18;;;;;;;9.43;5.90;;;19.80;99.90;;;;;;5046933;28;20507;-75
2022/06/30 06:05:44;;;;;;;8.73;6.20;;;19.90;99.90;;;;;;5051361;28;20068;-75
2022/06/30 06:08:11;;;;;;;9.07;6.15;;;20.00;99.90;;;;;;5051969;28;20037;-75
2022/06/30 06:10:37;;;;;;;9.32;5.50;;;20.10;99.90;;;;;;5050502;28;20140;-75
2022/06/30 06:13:04;;;;;;;7.47;5.50;;;20.20;99.90;;;;;;5035087;28;20496;-75
2022/06/30 06:15:29;;;;;;;9.30;5.80;;;20.30;99.90;;;;;;5034631;28;20413;-75
2022/06/30 06:17:55;;;;;;;10.50;5.72;;;20.40;99.90;;;;;;5051834;28;20033;-75
2022/06/30 06:20:21;;;;;;;9.25;5.53;;;20.40;99.90;;;;;;5050947;28;20091;-75
2022/06/30 06:22:46;;;;;;;9.27;5.70;;;20.60;99.90;;;;;;5051008;28;20052;-75
2022/06/30 06:25:13;;;;;;;9.32;5.32;;;20.60;99.90;;;;;;5050631;28;20039;-74
2022/06/30 06:27:39;;;;;;;7.70;5.78;;;20.80;99.90;;;;;;5032828;28;20070;-74
2022/06/30 06:30:07;;;;;;;9.68;5.30;;;20.80;99.90;;;;;;5031563;28;20037;-74
2022/06/30 06:32:33;;;;;;;8.27;5.60;;;21.00;99.90;;;;;;5033411;28;20064;-74
2022/06/30 06:34:59;;;;;;;9.93;5.45;;;21.00;99.90;;;;;;5035338;28;20392;-75
2022/06/30 06:37:25;;;;;;;7.65;5.28;;;21.10;99.90;;;;;;5034731;28;20037;-74
2022/06/30 06:39:51;;;;;;;8.52;5.28;;;21.20;99.90;;;;;;5034939;28;20037;-75
2022/06/30 06:42:16;;;;;;;9.80;5.07;;;21.30;99.90;;;;;;5067687;28;20493;-74
2022/06/30 06:44:42;;;;;;;9.38;5.38;;;21.50;99.90;;;;;;5067139;28;20041;-74
2022/06/30 06:47:08;;;;;;;7.50;5.03;;;21.50;99.90;;;;;;5040487;28;20041;-74
2022/06/30 06:49:34;;;;;;;7.90;5.75;;;21.50;99.90;;;;;;5034864;28;20045;-75
2022/06/30 06:51:59;;;;;;;8.15;5.30;;;21.60;99.90;;;;;;5043828;28;20033;-74
2022/06/30 06:54:25;;;;;;;10.50;6.72;;;21.70;99.90;;;;;;5033351;28;20033;-75
2022/06/30 06:56:50;;;;;;;10.10;5.50;;;21.70;99.90;;;;;;5041065;28;20533;-74
2022/06/30 06:59:16;;;;;;;9.00;5.53;;;21.80;99.90;;;;;;5039074;28;20460;-74
2022/06/30 07:01:42;;;;;;;9.80;5.03;;;21.90;99.90;;;;;;5039446;28;20037;-74
2022/06/30 07:04:08;;;;;;;9.65;5.05;;;22.00;99.90;;;;;;5018820;28;20504;-73
2022/06/30 07:06:34;;;;;;;10.23;5.93;;;22.10;99.90;;;;;;5048292;28;20040;-74
2022/06/30 07:09:00;;;;;;;8.10;6.32;;;22.00;99.90;;;;;;5070510;28;20378;-74
2022/06/30 07:11:26;;;;;;;10.48;6.20;;;22.00;99.90;;;;;;5054373;28;20425;-74
2022/06/30 07:13:52;;;;;;;8.93;5.35;;;22.00;99.90;;;;;;5027587;28;20047;-77
2022/06/30 07:16:17;;;;;;;8.07;5.63;;;22.10;99.90;;;;;;5064331;28;20121;-77
2022/06/30 07:18:43;;;;;;;8.50;5.60;;;22.20;99.90;;;;;;5053042;28;20029;-77
2022/06/30 07:21:08;;;;;;;10.23;6.30;;;22.20;99.90;;;;;;5053759;28;20037;-79
2022/06/30 07:23:34;;;;;;;8.50;5.63;;;22.30;99.90;;;;;;5054014;28;20377;-78
2022/06/30 07:25:59;;;;;;;10.95;6.20;;;22.30;99.90;;;;;;5053127;28;20044;-75
2022/06/30 07:28:26;;;;;;;10.63;5.68;;;22.40;99.90;;;;;;5054678;28;20072;-77
2022/06/30 07:30:52;;;;;;;8.18;5.50;;;22.40;99.90;;;;;;5036740;28;20040;-77
2022/06/30 07:33:18;;;;;;;7.40;5.07;;;22.40;99.90;;;;;;5071374;28;20037;-78
2022/06/30 07:35:44;;;;;;;10.13;6.43;;;22.60;99.90;;;;;;5035099;28;20102;-79
2022/06/30 07:38:10;;;;;;;10.45;6.55;;;22.70;99.90;;;;;;5037811;28;20037;-77
2022/06/30 07:40:35;;;;;;;9.30;6.13;;;22.70;99.90;;;;;;5053684;28;20198;-79
2022/06/30 07:43:01;;;;;;;7.45;5.63;;;22.70;99.90;;;;;;5053366;28;20044;-79
2022/06/30 07:45:27;;;;;;;10.50;6.07;;;22.80;99.90;;;;;;5046614;28;20033;-79
2022/06/30 07:47:53;;;;;;;9.25;6.18;;;23.00;99.90;;;;;;5051874;28;20047;-79
2022/06/30 07:50:19;;;;;;;9.45;6.43;;;23.00;99.90;;;;;;5052796;28;20044;-79
2022/06/30 07:52:45;;;;;;;9.30;6.57;;;23.00;99.90;;;;;;5070022;28;20043;-79
2022/06/30 07:55:12;;;;;;;8.80;6.50;;;23.20;99.90;;;;;;5031233;28;20047;-79
2022/06/30 07:57:42;;;;;;;9.23;6.47;;;23.20;99.90;;;;;;5037410;28;20088;-78
2022/06/30 08:00:09;;;;;;;8.15;6.07;;;23.30;99.90;;;;;;5053119;28;20052;-78
2022/06/30 08:02:34;;;;;;;10.32;6.50;;;23.40;99.90;;;;;;5054199;28;20393;-79
2022/06/30 08:05:00;;;;;;;9.23;6.47;;;23.50;99.90;;;;;;5028389;28;20045;-78
2022/06/30 08:07:25;;;;;;;10.13;5.72;;;23.60;99.90;;;;;;5051697;28;20460;-78
2022/06/30 08:09:51;;;;;;;8.15;5.80;;;23.60;99.90;;;;;;5033375;28;20037;-78
2022/06/30 08:12:16;;;;;;;8.10;5.80;;;23.70;99.90;;;;;;5042353;28;20477;-78
2022/06/30 08:14:42;;;;;;;9.02;6.57;;;23.80;99.90;;;;;;5050345;28;20036;-79
2022/06/30 08:17:08;;;;;;;8.55;6.78;;;23.80;99.90;;;;;;5053432;28;20396;-78
2022/06/30 08:19:34;;;;;;;8.60;6.65;;;23.80;99.90;;;;;;5069767;28;20037;-77
2022/06/30 08:21:59;;;;;;;9.75;6.45;;;23.80;99.90;;;;;;5036249;28;20067;-78
2022/06/30 08:24:25;;;;;;;11.10;6.40;;;23.90;99.90;;;;;;5053953;28;20040;-77
2022/06/30 08:26:50;;;;;;;7.60;5.80;;;24.00;99.90;;;;;;5048103;28;20032;-78
2022/06/30 08:29:16;;;;;;;8.43;6.60;;;24.10;99.90;;;;;;5053791;28;20467;-78
2022/06/30 08:31:42;;;;;;;8.32;7.00;;;24.20;99.90;;;;;;5066764;28;20037;-77
2022/06/30 08:34:08;;;;;;;9.32;6.47;;;24.20;99.90;;;;;;5045989;28;20508;-78
2022/06/30 08:36:33;;;;;;;10.18;6.53;;;24.30;99.90;;;;;;5032972;28;20397;-78
2022/06/30 08:38:59;;;;;;;9.52;7.50;;;24.40;99.90;;;;;;5052509;28;20040;-78
2022/06/30 08:44:12;;;;;;;8.95;6.88;;;24.40;99.90;;;;;;5048177;28;20389;-77
2022/06/30 08:46:38;;;;;;;10.90;6.40;;;24.50;99.90;;;;;;5051148;28;20048;-78
2022/06/30 08:49:05;;;;;;;10.25;6.78;;;24.60;99.90;;;;;;5048729;28;20404;-78
2022/06/30 08:51:35;;;;;;;8.57;6.22;;;24.80;99.90;;;;;;5041512;28;20493;-78
2022/06/30 08:54:02;;;;;;;9.98;7.60;;;24.80;99.90;;;;;;5052730;28;20048;-78
2022/06/30 08:56:35;;;;;;;10.18;6.88;;;24.80;99.90;;;;;;5031096;28;20029;-77
2022/06/30 08:59:02;;;;;;;10.25;7.07;;;25.00;99.90;;;;;;5051221;28;20044;-78
2022/06/30 09:01:29;;;;;;;9.10;6.88;;;25.00;99.90;;;;;;5052208;28;20033;-78
2022/06/30 09:03:58;;;;;;;8.55;6.90;;;25.00;99.90;;;;;;5035552;28;20072;-77
2022/06/30 09:06:24;;;;;;;10.30;7.28;;;25.20;99.90;;;;;;5017543;28;20212;-77
2022/06/30 09:08:50;;;;;;;9.52;7.78;;;25.10;99.90;;;;;;5033362;28;20095;-77
2022/06/30 09:11:16;;;;;;;10.45;6.82;;;25.10;99.90;;;;;;5051228;28;20057;-77
2022/06/30 09:13:50;;;;;;;9.40;6.55;;;25.30;99.90;;;;;;5050761;28;20048;-78
2022/06/30 09:16:17;;;;;;;9.82;8.00;;;25.40;99.90;;;;;;5033429;28;20149;-78
2022/06/30 09:18:44;;;;;;;9.55;7.43;;;25.30;99.90;;;;;;5050881;28;20029;-79
2022/06/30 09:21:17;;;;;;;9.60;7.05;;;25.50;99.90;;;;;;5034452;28;20037;-78
2022/06/30 09:23:47;;;;;;;11.48;8.02;;;25.50;99.90;;;;;;5031189;28;20033;-76
2022/06/30 09:26:22;;;;;;;11.02;8.25;;;25.50;99.90;;;;;;5031668;28;20045;-78
2022/06/30 09:28:56;;;;;;;9.40;7.20;;;25.60;99.90;;;;;;5050887;28;20040;-78
2022/06/30 09:31:38;;;;;;;9.45;7.65;;;25.60;99.90;;;;;;5045360;28;20036;-78
2022/06/30 09:34:20;;;;;;;9.32;7.40;;;25.70;99.90;;;;;;5034540;28;20041;-78
2022/06/30 09:36:53;;;;;;;10.93;8.65;;;25.80;99.90;;;;;;5066075;28;20354;-78
2022/06/30 09:39:20;;;;;;;8.45;7.50;;;26.00;99.90;;;;;;5055770;28;20047;-78
2022/06/30 09:41:48;;;;;;;10.35;7.90;;;26.10;99.90;;;;;;5034743;28;20119;-78
2022/06/30 09:44:16;;;;;;;9.35;7.38;;;26.10;99.90;;;;;;5036143;28;20038;-78
2022/06/30 09:47:02;;;;;;;10.27;7.82;;;26.20;99.90;;;;;;5016388;28;20079;-77
2022/06/30 09:49:36;;;;;;;10.38;7.88;;;26.20;99.90;;;;;;5063620;28;20048;-78
2022/06/30 09:52:23;;;;;;;10.35;8.35;;;26.30;99.90;;;;;;5030247;28;20040;-78
2022/06/30 09:54:58;;;;;;;10.30;8.02;;;26.40;99.90;;;;;;5063757;28;20041;-78
2022/06/30 09:57:27;;;;;;;12.48;8.38;;;26.50;99.90;;;;;;5042576;28;20037;-78
2022/06/30 10:00:14;;;;;;;10.43;8.68;;;26.50;99.90;;;;;;5052591;28;20117;-78
2022/06/30 10:02:47;;;;;;;9.93;8.43;;;26.60;99.90;;;;;;5047491;28;20476;-77
2022/06/30 10:05:15;;;;;;;10.65;7.88;;;26.50;99.90;;;;;;5035619;28;20041;-80
2022/06/30 10:07:41;;;;;;;12.77;8.80;;;26.70;99.90;;;;;;5047297;28;20413;-80
2022/06/30 10:10:15;;;;;;;10.75;8.40;;;26.90;99.90;;;;;;5050923;28;20048;-78
2022/06/30 10:12:45;;;;;;;10.40;9.30;;;26.80;99.90;;;;;;5050654;28;20562;-78
2022/06/30 10:15:12;;;;;;;9.73;8.23;;;26.80;99.90;;;;;;5033637;28;20041;-78
2022/06/30 10:17:44;;;;;;;9.90;7.75;;;26.90;99.90;;;;;;5049550;28;20064;-79
2022/06/30 10:20:10;;;;;;;10.48;7.75;;;26.90;99.90;;;;;;5020724;28;20120;-79
2022/06/30 10:22:38;;;;;;;11.18;8.65;;;26.80;99.90;;;;;;5033820;28;20390;-79
2022/06/30 10:25:04;;;;;;;10.77;9.38;;;26.80;99.90;;;;;;5033665;28;20041;-79
2022/06/30 10:27:30;;;;;;;10.02;8.80;;;26.60;99.90;;;;;;5050583;28;20115;-79
2022/06/30 10:30:06;;;;;;;10.20;9.10;;;26.40;99.90;;;;;;5054187;28;20130;-79
2022/06/30 10:32:50;;;;;;;10.77;9.20;;;26.30;99.90;;;;;;5039761;28;20048;-81
2022/06/30 10:35:33;;;;;;;10.55;8.88;;;26.10;99.90;;;;;;5035133;28;20068;-82
2022/06/30 10:38:01;;;;;;;10.98;9.32;;;26.00;99.90;;;;;;5070982;28;20098;-82
2022/06/30 10:40:40;;;;;;;11.57;10.38;;;26.10;99.90;;;;;;5051430;28;20116;-83
2022/06/30 10:43:05;;;;;;;12.60;10.18;;;26.10;99.90;;;;;;5037457;28;20083;-83
2022/06/30 10:45:31;;;;;;;10.93;9.65;;;26.20;99.90;;;;;;5054494;28;20080;-83
2022/06/30 10:47:57;;;;;;;10.25;8.90;;;26.10;99.90;;;;;;5054770;28;20136;-83
2022/06/30 10:50:36;;;;;;;10.60;8.57;;;26.20;99.90;;;;;;5024133;28;20048;-83
2022/06/30 10:53:05;;;;;;;11.68;8.90;;;26.40;99.90;;;;;;5022309;28;20448;-82
2022/06/30 10:55:49;;;;;;;11.07;8.98;;;26.30;99.90;;;;;;5034979;28;20048;-83
2022/06/30 10:58:15;;;;;;;11.82;10.60;;;26.30;99.90;;;;;;5044389;28;20128;-82
2022/06/30 11:00:45;;;;;;;11.20;9.68;;;26.30;99.90;;;;;;5044960;28;20370;-82
2022/06/30 11:03:29;;;;;;;11.38;9.88;;;26.10;99.90;;;;;;5035011;28;20083;-82
2022/06/30 11:05:57;;;;;;;11.65;9.75;;;26.00;99.90;;;;;;5034324;28;20486;-83
2022/06/30 11:08:57;;;;;;;12.20;10.23;;;26.10;99.90;;;;;;5026717;28;20045;-82
2022/06/30 11:11:23;;;;;;;12.68;10.73;;;26.10;99.90;;;;;;5038352;28;20084;-82
2022/06/30 11:13:50;;;;;;;11.13;10.00;;;26.10;99.90;;;;;;5018651;28;20049;-82
2022/06/30 11:16:18;;;;;;;13.25;11.38;;;26.00;99.90;;;;;;5045919;28;20041;-82
2022/06/30 11:18:44;;;;;;;11.00;9.73;;;25.90;99.90;;;;;;5049759;28;20069;-82
2022/06/30 11:21:10;;;;;;;7.60;5.38;;;26.00;99.90;;;;;;5054981;28;20516;-81
2022/06/30 11:23:41;;;;;;;10.35;8.40;;;26.20;99.90;;;;;;5026243;28;20127;-82
2022/06/30 11:28:55;;;;;;;8.63;5.97;;;26.30;99.90;;;;;;5047306;28;20045;-82
2022/06/30 11:31:29;;;;;;;11.35;5.13;;;26.10;99.90;;;;;;5044867;28;20033;-82
2022/06/30 11:33:58;;;;;;;7.82;5.22;;;26.10;99.90;;;;;;5051225;28;20088;-82
2022/06/30 11:36:24;;;;;;;6.70;4.05;;;26.10;99.90;;;;;;5039322;28;20116;-82
2022/06/30 11:38:58;;;;;;;9.57;4.88;;;26.00;99.90;;;;;;5052666;28;20183;-82
2022/06/30 11:44:13;;;;;;;7.15;4.80;;;25.80;99.90;;;;;;5045595;28;20500;-82
2022/06/30 11:46:57;;;;;;;10.57;6.05;;;25.80;99.90;;;;;;5053000;28;20124;-82
2022/06/30 11:49:43;;;;;;;8.38;6.10;;;25.90;99.90;;;;;;5052420;28;20083;-82
2022/06/30 11:52:15;;;;;;;8.68;5.72;;;26.00;99.90;;;;;;5061252;28;20049;-82
2022/06/30 11:55:03;;;;;;;9.27;6.45;;;25.90;99.90;;;;;;5043196;28;20041;-83
2022/06/30 11:57:33;;;;;;;10.48;6.50;;;25.90;99.90;;;;;;5033609;28;20040;-82
2022/06/30 12:00:06;;;;;;;9.32;6.63;;;26.00;99.90;;;;;;5045984;28;20040;-82
2022/06/30 12:02:33;;;;;;;8.02;6.43;;;26.20;99.90;;;;;;5052399;28;20041;-83
2022/06/30 12:05:00;;;;;;;8.15;6.47;;;26.30;99.90;;;;;;5060780;28;20042;-82
2022/06/30 12:07:27;;;;;;;9.88;6.38;;;26.40;99.90;;;;;;5049184;28;20124;-82
2022/06/30 12:09:54;;;;;;;9.48;6.53;;;26.50;99.90;;;;;;5037276;28;20132;-82
2022/06/30 12:12:28;;;;;;;8.07;6.63;;;26.60;99.90;;;;;;5053146;28;20049;-82
2022/06/30 12:15:03;;;;;;;10.25;6.22;;;26.70;99.90;;;;;;5036313;28;20045;-82
2022/06/30 12:17:35;;;;;;;9.10;6.53;;;26.70;99.90;;;;;;5053005;28;20080;-82
2022/06/30 12:20:02;;;;;;;9.38;7.00;;;26.80;99.90;;;;;;5053264;28;20033;-82
2022/06/30 12:22:28;;;;;;;9.23;6.53;;;26.80;99.90;;;;;;5042778;28;20045;-82
2022/06/30 12:24:53;;;;;;;9.43;6.93;;;26.80;99.90;;;;;;5053540;28;20033;-82
2022/06/30 12:27:28;;;;;;;9.20;6.60;;;26.80;99.90;;;;;;5053093;28;20033;-83
2022/06/30 12:30:06;;;;;;;9.68;6.60;;;26.70;99.90;;;;;;5052751;28;20119;-82
2022/06/30 12:32:31;;;;;;;8.82;6.05;;;26.70;99.90;;;;;;5036743;28;20045;-80
2022/06/30 12:35:00;;;;;;;10.52;6.47;;;26.50;99.90;;;;;;5029564;28;20067;-82
2022/06/30 12:37:34;;;;;;;10.10;6.40;;;26.50;99.90;;;;;;5027332;28;20063;-82
2022/06/30 12:40:03;;;;;;;7.78;6.18;;;26.50;99.90;;;;;;5053420;28;20481;-82
2022/06/30 12:42:47;;;;;;;8.20;5.25;;;26.50;99.90;;;;;;5069706;28;20086;-82
2022/06/30 12:45:35;;;;;;;7.75;5.45;;;26.30;99.90;;;;;;5035421;28;20041;-82
2022/06/30 12:48:06;;;;;;;9.60;5.43;;;26.10;99.90;;;;;;5035291;28;20051;-82
2022/06/30 12:50:33;;;;;;;8.75;5.20;;;26.10;99.90;;;;;;5050796;28;20041;-71
2022/06/30 12:53:15;;;;;;;9.13;5.88;;;26.00;99.90;;;;;;5050732;28;20041;-80
2022/06/30 12:55:59;;;;;;;;;;;26.00;99.90;;;;;;5045081;28;20041;-80
2022/06/30 12:58:24;;;;;;;8.98;6.05;;;26.10;99.90;;;;;;5035227;28;20357;-79
2022/06/30 13:00:50;;;;;;;8.32;5.95;;;26.20;99.90;;;;;;5034610;28;20078;-79
2022/06/30 13:03:15;;;;;;;8.23;5.72;;;26.40;99.90;;;;;;5058086;28;20048;-76
2022/06/30 13:05:41;;;;;;;9.77;5.57;;;26.50;99.90;;;;;;5032406;28;20037;-76
2022/06/30 13:08:06;;;;;;;8.75;5.40;;;26.40;99.90;;;;;;5016496;28;20137;-76